Terminal Aerodrome Forecast
Issued by NWS Detroit/Pontiac, MI

Home | Current Version | Previous Version | Text Only | Print | Product List | Glossary On
Versions: 1 2 3 4 5 6 7 8 9 10 11 12 13 14 15 16
048
FTUS43 KDTX 231743
TAFFNT
TAF
KFNT 231743Z 2318/2418 30013KT P6SM BKN040
     FM240100 31005KT P6SM SCT120
     FM241000 35005KT P6SM SCT020
     FM241400 33007KT P6SM BKN150=

USA.gov is the U.S. government's official web portal to all federal, state and local government web resources and services.